createdAt,value
2018-04-24T00:01:16.468Z,77.90
2018-04-24T00:06:36.320Z,77.00
2018-04-24T00:09:11.309Z,77.30
2018-04-24T00:11:43.100Z,77.30
2018-04-24T00:19:48.372Z,78.40
2018-04-24T00:22:33.589Z,77.60
2018-04-24T00:25:10.851Z,77.20
2018-04-24T00:27:51.635Z,76.60
2018-04-24T00:30:25.677Z,76.80
2018-04-24T00:33:00.240Z,76.80
2018-04-24T00:35:45.556Z,76.90
2018-04-24T00:38:18.650Z,77.10
2018-04-24T00:40:57.013Z,78.10
2018-04-24T00:43:30.528Z,78.10
2018-04-24T00:46:01.295Z,78.60
2018-04-24T00:48:41.883Z,79.10
2018-04-24T00:51:14.604Z,79.80
2018-04-24T00:53:46.640Z,80.20
2018-04-24T00:56:23.559Z,80.10
2018-04-24T01:01:40.911Z,80.60
2018-04-24T01:04:16.252Z,81.00
2018-04-24T01:06:51.866Z,81.60
2018-04-24T01:09:24.559Z,81.80
2018-04-24T01:14:33.941Z,81.40
2018-04-24T01:22:33.069Z,81.40
2018-04-24T01:37:43.683Z,81.90
2018-04-24T01:40:20.185Z,82.70
2018-04-24T01:42:57.613Z,82.70
2018-04-24T01:45:34.455Z,82.90
2018-04-24T01:48:10.368Z,83.00
2018-04-24T01:50:57.415Z,83.50
2018-04-24T01:56:13.121Z,83.70
2018-04-24T01:58:51.331Z,84.10
2018-04-24T02:01:24.903Z,84.00
2018-04-24T02:03:58.709Z,84.60
2018-04-24T02:06:33.133Z,84.50
2018-04-24T02:09:11.793Z,85.10
2018-04-24T02:11:47.156Z,84.80
2018-04-24T02:14:23.852Z,85.30
2018-04-24T02:16:59.215Z,85.30
2018-04-24T02:19:33.082Z,85.50
2018-04-24T02:24:42.840Z,86.10
2018-04-24T02:30:30.945Z,86.50
2018-04-24T02:33:09.130Z,86.10
2018-04-24T02:35:41.272Z,86.00
2018-04-24T02:38:13.859Z,86.20
2018-04-24T02:43:35.264Z,85.80
2018-04-24T02:46:08.829Z,85.80
2018-04-24T02:48:41.252Z,85.60
2018-04-24T02:54:02.599Z,85.60
2018-04-24T02:56:39.665Z,85.90
2018-04-24T02:59:13.131Z,86.00
2018-04-24T03:01:50.220Z,86.20
2018-04-24T03:04:27.538Z,86.00
2018-04-24T03:07:05.027Z,86.00
2018-04-24T03:09:42.591Z,86.00
2018-04-24T03:14:52.453Z,86.50
2018-04-24T03:17:24.724Z,86.80
2018-04-24T03:19:56.761Z,86.60
2018-04-24T03:22:30.592Z,86.50
2018-04-24T03:25:11.947Z,86.40
2018-04-24T03:27:47.628Z,86.70
2018-04-24T03:30:20.866Z,86.70
2018-04-24T03:32:54.397Z,86.70
2018-04-24T03:35:30.225Z,86.90
2018-04-24T03:38:07.361Z,86.80
2018-04-24T03:40:44.926Z,86.80
2018-04-24T03:48:39.926Z,86.60
2018-04-24T03:51:13.573Z,86.60
2018-04-24T03:53:52.008Z,87.40
2018-04-24T03:56:30.343Z,86.90
2018-04-24T04:01:52.799Z,87.60
2018-04-24T04:07:17.329Z,87.20
2018-04-24T04:09:48.453Z,87.00
2018-04-24T04:18:16.096Z,87.30
2018-04-24T04:21:57.530Z,87.80
2018-04-24T04:24:40.914Z,87.80
2018-04-24T04:27:19.285Z,87.90
2018-04-24T04:30:00.050Z,87.90
2018-04-24T04:32:37.589Z,88.20
2018-04-24T04:35:09.680Z,87.80
2018-04-24T04:37:45.873Z,87.80
2018-04-24T04:40:26.806Z,87.30
2018-04-24T04:43:05.023Z,86.60
2018-04-24T04:48:28.335Z,85.30
2018-04-24T04:53:44.712Z,84.10
2018-04-24T06:02:17.192Z,74.80
2018-04-24T06:04:47.039Z,75.90
2018-04-24T06:14:34.870Z,77.00
2018-04-24T06:42:11.732Z,62.60
2018-04-24T06:50:18.768Z,59.00
2018-04-24T07:00:19.428Z,54.90
2018-04-24T07:39:36.811Z,54.50
2018-04-24T07:42:05.786Z,54.60
2018-04-24T07:44:34.735Z,54.00
2018-04-24T07:47:03.977Z,54.10
2018-04-24T07:49:32.900Z,54.70
2018-04-24T07:52:02.658Z,53.70
2018-04-24T07:54:31.874Z,53.70
2018-04-24T07:57:00.825Z,53.30
2018-04-24T07:59:30.763Z,53.60
2018-04-24T08:01:59.974Z,53.50
2018-04-24T08:04:28.876Z,53.40
2018-04-24T08:06:57.803Z,50.60
2018-04-24T08:09:27.759Z,50.90
2018-04-24T08:11:57.900Z,51.30
2018-04-24T08:14:26.828Z,50.70
2018-04-24T08:16:56.582Z,49.90
2018-04-24T08:19:25.499Z,50.30
2018-04-24T08:21:54.452Z,50.10
2018-04-24T08:24:23.661Z,47.90
2018-04-24T08:26:52.815Z,48.60
2018-04-24T08:29:22.490Z,48.00
2018-04-24T08:31:51.444Z,47.80
2018-04-24T08:34:20.439Z,48.10
2018-04-24T08:36:49.428Z,47.80
2018-04-24T08:39:18.637Z,47.60
2018-04-24T08:41:47.563Z,48.40
2018-04-24T08:44:16.492Z,47.00
2018-04-24T08:46:45.696Z,45.60
2018-04-24T08:49:14.618Z,44.70
2018-04-24T08:51:43.584Z,46.80
2018-04-24T08:54:12.777Z,44.90
2018-04-24T08:56:42.434Z,43.40
2018-04-24T08:59:11.336Z,43.40
2018-04-24T09:01:41.349Z,40.60
2018-04-24T09:04:10.423Z,40.50
2018-04-24T09:06:39.407Z,40.30
2018-04-24T09:09:08.631Z,39.60
2018-04-24T09:11:37.586Z,39.40
2018-04-24T09:14:06.610Z,39.50
2018-04-24T09:16:35.867Z,40.80
2018-04-24T09:19:04.816Z,39.60
2018-04-24T09:21:33.824Z,39.30
2018-04-24T09:24:03.783Z,41.40
2018-04-24T09:26:32.775Z,41.40
2018-04-24T09:29:02.658Z,40.00
2018-04-24T09:31:36.031Z,40.70
2018-04-24T09:34:05.767Z,39.10
2018-04-24T09:36:34.781Z,39.00
2018-04-24T09:39:03.942Z,38.70
2018-04-24T09:41:34.046Z,37.90
2018-04-24T09:44:03.741Z,36.80
2018-04-24T09:46:32.968Z,36.80
2018-04-24T09:49:01.881Z,36.00
2018-04-24T09:51:30.827Z,34.30
2018-04-24T09:54:00.926Z,33.40
2018-04-24T09:56:29.864Z,35.00
2018-04-24T09:58:59.550Z,34.00
2018-04-24T10:01:29.603Z,34.50
2018-04-24T10:03:58.587Z,34.50
2018-04-24T10:06:27.520Z,35.40
2018-04-24T10:08:56.703Z,36.30
2018-04-24T10:11:25.636Z,37.70
2018-04-24T10:13:54.548Z,37.30
2018-04-24T10:16:24.523Z,39.20
2018-04-24T10:18:53.410Z,39.30
2018-04-24T10:21:22.538Z,39.90
2018-04-24T10:23:52.610Z,40.40
2018-04-24T10:26:21.543Z,40.40
